createdAt,value
2018-07-13T00:03:03.111Z,4.83
2018-07-13T00:07:59.869Z,4.97
2018-07-13T00:12:56.871Z,5.17
2018-07-13T00:17:53.659Z,5.43
2018-07-13T00:22:50.694Z,5.27
2018-07-13T00:27:47.462Z,4.97
2018-07-13T00:32:44.576Z,5.63
2018-07-13T00:42:45.631Z,5.17
2018-07-13T00:47:42.432Z,5.93
2018-07-13T00:52:39.623Z,5.70
2018-07-13T00:57:36.383Z,5.37
2018-07-13T01:02:33.463Z,6.43
2018-07-13T01:07:30.259Z,6.07
2018-07-13T01:12:27.179Z,5.93
2018-07-13T01:17:25.130Z,6.43
2018-07-13T01:22:22.414Z,5.40
2018-07-13T01:27:19.873Z,6.03
2018-07-13T01:32:17.060Z,6.70
2018-07-13T01:37:14.117Z,6.50
2018-07-13T01:42:11.602Z,6.03
2018-07-13T01:47:08.432Z,6.93
2018-07-13T01:52:05.554Z,6.60
2018-07-13T01:57:02.375Z,7.13
2018-07-13T02:01:59.694Z,7.50
2018-07-13T02:06:56.532Z,7.13
2018-07-13T02:11:53.677Z,6.67
2018-07-13T02:16:50.462Z,7.13
2018-07-13T02:21:47.518Z,7.80
2018-07-13T02:26:44.263Z,7.70
2018-07-13T02:31:42.041Z,6.93
2018-07-13T02:36:38.834Z,6.73
2018-07-13T02:41:35.884Z,7.10
2018-07-13T02:46:32.876Z,7.33
2018-07-13T02:51:30.289Z,7.33
2018-07-13T02:56:27.075Z,8.00
2018-07-13T03:01:24.282Z,7.63
2018-07-13T03:06:21.017Z,7.27
2018-07-13T03:11:18.045Z,7.50
2018-07-13T03:16:14.795Z,8.27
2018-07-13T03:21:11.769Z,8.07
2018-07-13T03:26:08.559Z,8.10
2018-07-13T03:31:05.793Z,8.20
2018-07-13T03:36:02.762Z,8.33
2018-07-13T03:40:59.829Z,8.90
2018-07-13T03:45:56.639Z,7.33
2018-07-13T03:50:53.665Z,7.60
2018-07-13T03:55:50.823Z,7.87
2018-07-13T04:00:47.613Z,8.07
2018-07-13T04:05:44.737Z,7.87
2018-07-13T04:10:41.847Z,8.63
2018-07-13T04:15:38.883Z,8.50
2018-07-13T04:20:35.711Z,8.07
2018-07-13T04:25:32.893Z,8.67
2018-07-13T04:30:29.706Z,8.93
2018-07-13T04:35:27.534Z,8.67
2018-07-13T04:40:24.350Z,8.33
2018-07-13T04:45:21.460Z,8.40
2018-07-13T04:50:18.650Z,8.57
2018-07-13T04:55:15.693Z,9.30
2018-07-13T05:00:12.584Z,9.33
2018-07-13T05:05:09.806Z,8.50
2018-07-13T05:10:06.879Z,8.90
2018-07-13T05:15:04.866Z,9.27
2018-07-13T05:20:01.643Z,8.53
2018-07-13T05:24:59.312Z,9.03
2018-07-13T05:29:56.150Z,9.40
2018-07-13T05:34:53.330Z,10.17
2018-07-13T05:39:50.666Z,10.20
2018-07-13T05:44:47.791Z,10.33
2018-07-13T05:49:44.929Z,10.20
2018-07-13T05:54:41.852Z,11.63
2018-07-13T05:59:39.190Z,10.17
2018-07-13T06:04:36.067Z,10.90
2018-07-13T06:09:33.306Z,10.30
2018-07-13T06:14:30.031Z,9.80
2018-07-13T06:19:27.128Z,9.43
2018-07-13T06:24:24.038Z,8.63
2018-07-13T06:29:21.286Z,8.77
2018-07-13T06:34:18.068Z,8.17
2018-07-13T06:39:15.190Z,9.13
2018-07-13T06:44:13.188Z,8.10
2018-07-13T06:49:10.299Z,7.83
2018-07-13T06:54:07.272Z,7.77
2018-07-13T06:59:07.650Z,7.70
2018-07-13T07:04:37.648Z,7.40
2018-07-13T07:09:34.743Z,7.03
2018-07-13T07:14:31.533Z,6.85
2018-07-13T07:19:28.687Z,6.87
2018-07-13T07:24:25.476Z,7.33
2018-07-13T07:29:22.527Z,6.78
2018-07-13T07:34:19.284Z,6.75
2018-07-13T07:39:16.309Z,5.97
2018-07-13T07:44:14.167Z,5.53
2018-07-13T07:49:11.465Z,5.08
2018-07-13T07:54:08.296Z,5.40
2018-07-13T07:59:05.291Z,5.65
2018-07-13T08:04:02.104Z,4.70
2018-07-13T08:08:59.314Z,5.55
2018-07-13T08:13:56.227Z,5.20
2018-07-13T08:18:53.365Z,5.62
2018-07-13T08:23:50.225Z,4.30
2018-07-13T08:28:47.482Z,4.85
2018-07-13T08:33:44.540Z,5.37
2018-07-13T08:38:41.364Z,4.70
2018-07-13T08:43:39.579Z,6.05
2018-07-13T08:48:37.381Z,5.40
2018-07-13T08:53:34.245Z,5.17
2018-07-13T08:58:31.817Z,5.15
2018-07-13T09:03:28.616Z,4.80
2018-07-13T09:08:25.720Z,4.45
2018-07-13T09:13:22.535Z,4.45
2018-07-13T09:18:19.576Z,4.10
2018-07-13T09:23:16.412Z,4.30
2018-07-13T09:28:13.365Z,3.83
2018-07-13T09:33:10.181Z,4.15
2018-07-13T09:38:07.514Z,3.80
2018-07-13T09:43:04.215Z,4.12
2018-07-13T09:48:01.218Z,3.98
2018-07-13T09:52:58.100Z,4.60
2018-07-13T09:57:55.969Z,3.87
2018-07-13T10:02:52.724Z,3.90
2018-07-13T10:07:50.111Z,3.60
2018-07-13T10:12:46.959Z,3.50
2018-07-13T10:17:44.053Z,3.42
2018-07-13T10:22:40.842Z,2.90
2018-07-13T10:27:38.572Z,2.33
2018-07-13T10:32:35.423Z,3.20
2018-07-13T10:37:32.608Z,3.62
2018-07-13T10:42:29.492Z,3.50
2018-07-13T10:47:26.521Z,3.30
2018-07-13T10:52:23.323Z,2.60
2018-07-13T10:57:20.333Z,2.90
2018-07-13T11:02:17.495Z,2.87
2018-07-13T11:07:14.254Z,2.80
2018-07-13T11:12:11.926Z,3.33
2018-07-13T11:17:08.705Z,2.83
2018-07-13T11:22:05.884Z,2.70
2018-07-13T11:27:03.033Z,2.92
2018-07-13T11:31:59.885Z,2.95
2018-07-13T11:36:56.788Z,3.00
2018-07-13T11:41:53.607Z,3.20
2018-07-13T11:46:51.084Z,3.47
2018-07-13T11:51:47.910Z,3.60
2018-07-13T11:56:44.928Z,3.65
2018-07-13T12:01:41.734Z,4.40
2018-07-13T12:06:38.750Z,16.85
2018-07-13T12:11:35.710Z,3.35
2018-07-13T12:16:32.840Z,3.17
2018-07-13T12:21:29.659Z,3.30
2018-07-13T12:26:26.689Z,2.80
2018-07-13T12:31:23.477Z,8.85
2018-07-13T12:36:20.943Z,3.72
2018-07-13T12:41:17.757Z,3.10
2018-07-13T12:46:15.253Z,3.20
2018-07-13T12:51:12.041Z,3.77
2018-07-13T12:56:09.316Z,4.03
2018-07-13T13:01:06.137Z,4.30
2018-07-13T13:06:03.229Z,3.55
2018-07-13T13:11:00.134Z,3.02
2018-07-13T13:15:57.126Z,3.17
2018-07-13T13:20:53.921Z,3.20
2018-07-13T13:25:50.949Z,3.20
2018-07-13T13:30:48.565Z,3.05
2018-07-13T13:35:45.599Z,2.90
2018-07-13T13:40:42.450Z,2.90
2018-07-13T13:45:39.293Z,2.75
2018-07-13T13:50:37.388Z,2.70
2018-07-13T13:55:34.701Z,2.83
2018-07-13T14:00:31.656Z,2.65
2018-07-13T14:05:28.790Z,2.85
2018-07-13T14:10:25.523Z,2.40
2018-07-13T14:15:22.821Z,2.40
2018-07-13T14:20:19.720Z,2.60
2018-07-13T14:25:16.848Z,2.95
2018-07-13T14:30:13.643Z,2.42
2018-07-13T14:35:10.825Z,2.50
2018-07-13T14:40:07.694Z,3.90
2018-07-13T14:45:04.915Z,3.60
2018-07-13T14:50:01.658Z,2.98
2018-07-13T14:55:00.065Z,3.00
2018-07-13T14:59:56.853Z,11.38
2018-07-13T15:04:53.905Z,3.52
2018-07-13T15:09:51.050Z,3.33
2018-07-13T15:14:47.811Z,3.02
2018-07-13T15:19:44.959Z,3.02
2018-07-13T15:24:41.788Z,2.47
2018-07-13T15:29:39.421Z,3.47
2018-07-13T15:34:36.158Z,8.40
2018-07-13T15:39:33.222Z,3.20
2018-07-13T15:44:29.996Z,4.28
2018-07-13T15:49:27.147Z,4.10
2018-07-13T15:54:23.931Z,3.05
2018-07-13T15:59:21.578Z,3.47
2018-07-13T16:04:18.703Z,3.60
2018-07-13T16:09:15.927Z,4.00
2018-07-13T16:14:12.765Z,3.62
2018-07-13T16:19:09.867Z,3.60
2018-07-13T16:24:06.776Z,3.67
2018-07-13T16:29:03.980Z,3.25
2018-07-13T16:34:00.848Z,3.37
2018-07-13T16:38:57.963Z,4.55
2018-07-13T16:43:54.978Z,4.45
2018-07-13T16:48:51.804Z,3.60
2018-07-13T16:53:49.187Z,4.05
2018-07-13T16:58:45.952Z,4.00
2018-07-13T17:03:43.111Z,4.28
2018-07-13T17:08:39.945Z,4.20
2018-07-13T17:13:36.897Z,4.72
2018-07-13T17:18:33.630Z,4.80
2018-07-13T17:23:30.461Z,5.55
2018-07-13T17:28:27.264Z,6.12
2018-07-13T17:33:24.549Z,5.15
2018-07-13T17:38:21.326Z,6.40
2018-07-13T17:43:18.250Z,10.40
2018-07-13T17:48:14.973Z,6.20
2018-07-13T17:53:11.677Z,8.48
2018-07-13T17:58:08.425Z,6.62
2018-07-13T18:03:05.218Z,8.93
2018-07-13T18:08:02.074Z,14.80
2018-07-13T18:12:59.137Z,19.20
2018-07-13T18:17:55.679Z,14.93
2018-07-13T18:22:52.521Z,12.75
2018-07-13T18:27:49.273Z,7.28
2018-07-13T18:32:46.368Z,4.62
2018-07-13T18:37:43.322Z,4.40
2018-07-13T18:42:40.383Z,18.40
2018-07-13T18:47:37.451Z,17.10
2018-07-13T18:52:34.411Z,9.00
2018-07-13T18:57:31.137Z,6.17
2018-07-13T19:02:28.232Z,5.90
2018-07-13T19:07:25.977Z,4.22
2018-07-13T19:12:23.191Z,4.40
2018-07-13T19:17:19.911Z,4.70
2018-07-13T19:22:16.998Z,4.70
2018-07-13T19:27:13.737Z,4.83
2018-07-13T19:32:11.020Z,5.12
2018-07-13T19:37:07.734Z,4.80
2018-07-13T19:42:04.955Z,5.60
2018-07-13T19:47:02.074Z,6.62
2018-07-13T19:51:59.590Z,7.28
2018-07-13T19:56:56.534Z,8.83
2018-07-13T20:01:53.200Z,7.67
2018-07-13T20:06:50.275Z,8.18
2018-07-13T20:11:47.196Z,9.83
2018-07-13T20:16:44.486Z,7.03
2018-07-13T20:21:41.222Z,6.85
2018-07-13T20:26:38.217Z,7.12
2018-07-13T20:31:35.443Z,5.97
2018-07-13T20:36:32.432Z,6.65
2018-07-13T20:41:29.239Z,6.10
2018-07-13T20:46:26.269Z,6.30
2018-07-13T20:51:22.784Z,7.58
2018-07-13T20:56:19.531Z,6.85
2018-07-13T21:01:16.334Z,6.35
2018-07-13T21:06:13.305Z,7.45
2018-07-13T21:11:10.020Z,8.65
2018-07-13T21:16:07.125Z,6.20
2018-07-13T21:21:03.858Z,6.50
2018-07-13T21:26:01.141Z,8.00
2018-07-13T21:30:57.865Z,7.40
2018-07-13T21:35:54.969Z,7.78
2018-07-13T21:40:51.690Z,8.30
2018-07-13T21:45:48.812Z,8.23
2018-07-13T21:50:45.480Z,8.10
2018-07-13T21:55:42.409Z,7.93
2018-07-13T22:00:39.198Z,7.30
2018-07-13T22:05:36.338Z,7.58
2018-07-13T22:10:33.105Z,7.23
2018-07-13T22:15:30.054Z,8.40
2018-07-13T22:20:26.792Z,9.63
2018-07-13T22:25:23.964Z,7.80
2018-07-13T22:30:20.845Z,7.43
2018-07-13T22:35:17.897Z,8.03
2018-07-13T22:40:14.665Z,8.63
2018-07-13T22:45:11.623Z,9.20
2018-07-13T22:50:08.347Z,10.13
2018-07-13T22:55:05.423Z,8.37
2018-07-13T23:00:02.056Z,8.67
2018-07-13T23:04:59.075Z,8.60
2018-07-13T23:09:55.812Z,8.17
2018-07-13T23:14:52.767Z,8.30
2018-07-13T23:19:49.676Z,9.33
2018-07-13T23:24:46.592Z,8.73
2018-07-13T23:29:43.313Z,9.10
2018-07-13T23:34:40.329Z,9.87
2018-07-13T23:39:37.064Z,8.77
2018-07-13T23:44:34.046Z,8.20
2018-07-13T23:49:30.792Z,9.47
2018-07-13T23:54:27.868Z,9.30
2018-07-13T23:59:24.792Z,9.33
